createdAt,value
2023-01-02T00:00:20.665Z,13.82
2023-01-02T00:02:47.600Z,9.18
2023-01-02T00:05:14.082Z,9.85
2023-01-02T00:07:40.391Z,8.73
2023-01-02T00:10:06.956Z,6.25
2023-01-02T00:12:33.377Z,8.68
2023-01-02T00:14:59.705Z,10.32
2023-01-02T00:17:26.083Z,6.95
2023-01-02T00:19:52.411Z,7.68
2023-01-02T00:22:18.726Z,13.07
2023-01-02T00:24:45.066Z,9.55
2023-01-02T00:27:11.430Z,11.52
2023-01-02T00:29:37.744Z,8.32
2023-01-02T00:32:04.233Z,10.93
2023-01-02T00:34:30.567Z,10.00
2023-01-02T00:36:56.895Z,14.27
2023-01-02T00:39:23.442Z,10.95
2023-01-02T00:41:49.759Z,8.93
2023-01-02T00:44:16.102Z,12.23
2023-01-02T00:46:42.427Z,10.95
2023-01-02T00:49:08.781Z,9.13
2023-01-02T00:51:35.064Z,11.93
2023-01-02T00:54:01.440Z,11.00
2023-01-02T00:56:27.777Z,8.63
2023-01-02T00:58:54.145Z,10.82
2023-01-02T01:01:20.555Z,10.20
2023-01-02T01:03:46.955Z,11.57
2023-01-02T01:06:14.456Z,9.52
2023-01-02T01:08:41.103Z,7.65
2023-01-02T01:11:09.211Z,8.48
2023-01-02T01:13:36.381Z,8.30
2023-01-02T01:16:10.578Z,8.95
2023-01-02T01:18:37.943Z,10.65
2023-01-02T01:21:13.573Z,12.18
2023-01-02T01:23:40.138Z,9.52
2023-01-02T01:26:09.060Z,8.25
2023-01-02T01:28:35.839Z,6.40
2023-01-02T01:31:08.140Z,8.82
2023-01-02T01:33:34.581Z,9.68
2023-01-02T01:36:05.576Z,9.57
2023-01-02T01:38:33.075Z,7.47
2023-01-02T01:41:00.004Z,9.48
2023-01-02T01:43:47.125Z,10.23
2023-01-02T01:46:31.673Z,7.38
2023-01-02T01:49:28.831Z,7.75
2023-01-02T01:51:56.885Z,11.07
2023-01-02T01:54:32.336Z,5.95
2023-01-02T01:57:13.161Z,10.30
2023-01-02T01:59:40.422Z,9.98
2023-01-02T02:02:07.636Z,11.52
2023-01-02T02:04:34.598Z,7.57
2023-01-02T02:07:00.994Z,13.80
2023-01-02T02:09:36.940Z,10.77
2023-01-02T02:12:06.518Z,8.82
2023-01-02T02:14:33.658Z,8.75
2023-01-02T02:17:21.563Z,7.18
2023-01-02T02:20:08.388Z,9.32
2023-01-02T02:22:42.763Z,6.72
2023-01-02T02:25:11.954Z,7.35
2023-01-02T02:28:17.284Z,4.20
2023-01-02T02:31:16.174Z,9.20
2023-01-02T02:33:58.576Z,3.72
2023-01-02T02:36:58.008Z,6.90
2023-01-02T02:39:45.989Z,7.68
2023-01-02T02:43:03.135Z,7.45
2023-01-02T02:46:04.886Z,7.60
2023-01-02T02:48:54.463Z,7.47
2023-01-02T02:51:30.175Z,5.82
2023-01-02T02:54:04.035Z,6.45
2023-01-02T02:56:31.463Z,5.90
2023-01-02T02:58:58.314Z,8.50
2023-01-02T03:01:30.406Z,4.95
2023-01-02T03:03:58.021Z,10.68
2023-01-02T03:06:55.383Z,9.13
2023-01-02T03:09:30.603Z,4.10
2023-01-02T03:12:21.727Z,8.30
2023-01-02T03:15:09.649Z,7.55
2023-01-02T03:17:53.777Z,4.90
2023-01-02T03:20:25.064Z,7.85
2023-01-02T03:22:58.777Z,7.05
2023-01-02T03:25:25.610Z,7.38
2023-01-02T03:27:56.177Z,11.50
2023-01-02T03:30:23.265Z,8.95
2023-01-02T03:32:51.497Z,5.57
2023-01-02T03:35:24.022Z,5.57
2023-01-02T03:37:54.529Z,5.35
2023-01-02T03:40:34.048Z,8.13
2023-01-02T03:43:08.719Z,4.60
2023-01-02T03:45:44.280Z,8.75
2023-01-02T03:48:22.843Z,7.53
2023-01-02T03:50:53.008Z,10.65
2023-01-02T03:53:20.725Z,6.55
2023-01-02T03:56:24.840Z,7.75
2023-01-02T03:59:11.944Z,8.80
2023-01-02T04:01:53.622Z,5.18
2023-01-02T04:04:31.995Z,9.55
2023-01-02T04:07:03.143Z,9.68
2023-01-02T04:12:04.943Z,6.10
2023-01-02T04:15:11.445Z,4.13
2023-01-02T04:18:02.474Z,9.35
2023-01-02T04:20:36.119Z,4.90
2023-01-02T04:23:08.927Z,4.95
2023-01-02T04:25:44.926Z,6.60
2023-01-02T04:28:37.900Z,2.03
2023-01-02T04:31:13.265Z,7.82
2023-01-02T04:33:44.666Z,7.05
2023-01-02T04:36:13.248Z,4.13
2023-01-02T04:38:41.309Z,4.15
2023-01-02T04:41:08.181Z,4.35
2023-01-02T04:43:34.499Z,7.03
2023-01-02T04:46:00.970Z,5.75
2023-01-02T04:48:27.368Z,5.40
2023-01-02T04:50:54.809Z,4.22
2023-01-02T04:53:21.504Z,6.78
2023-01-02T04:55:47.872Z,7.18
2023-01-02T04:58:14.258Z,6.28
2023-01-02T05:00:40.635Z,7.55
2023-01-02T05:03:06.978Z,8.20
2023-01-02T05:05:33.380Z,4.95
2023-01-02T05:07:59.761Z,7.70
2023-01-02T05:10:26.087Z,4.85
2023-01-02T05:12:52.393Z,7.07
2023-01-02T05:15:18.820Z,4.75
2023-01-02T05:17:45.132Z,10.40
2023-01-02T05:20:14.139Z,8.68
2023-01-02T05:23:01.113Z,11.20
2023-01-02T05:25:28.596Z,6.03
2023-01-02T05:27:55.677Z,8.50
2023-01-02T05:30:22.537Z,4.55
2023-01-02T05:32:49.165Z,3.75
2023-01-02T05:35:15.778Z,4.97
2023-01-02T05:37:42.345Z,5.07
2023-01-02T05:40:09.485Z,7.20
2023-01-02T05:42:35.873Z,3.80
2023-01-02T05:45:02.477Z,8.73
2023-01-02T05:47:28.794Z,4.35
2023-01-02T05:49:55.166Z,4.82
2023-01-02T05:52:21.526Z,4.47
2023-01-02T05:54:47.855Z,6.78
2023-01-02T05:57:14.159Z,4.57
2023-01-02T05:59:40.472Z,5.65
2023-01-02T06:02:06.837Z,5.10
2023-01-02T06:04:33.213Z,4.10
2023-01-02T06:06:59.548Z,7.88
2023-01-02T06:09:26.100Z,7.03
2023-01-02T06:11:52.499Z,4.60
2023-01-02T06:14:18.865Z,4.35
2023-01-02T06:16:45.264Z,3.72
2023-01-02T06:19:11.671Z,7.35
2023-01-02T06:21:37.980Z,8.57
2023-01-02T06:24:04.451Z,5.85
2023-01-02T06:26:34.936Z,6.18
2023-01-02T06:31:29.499Z,5.55
2023-01-02T06:34:01.589Z,7.18
2023-01-02T06:36:33.276Z,5.07
2023-01-02T06:38:59.710Z,12.23
2023-01-02T06:41:26.479Z,5.35
2023-01-02T06:43:53.085Z,4.72
2023-01-02T06:46:21.797Z,9.80
2023-01-02T06:48:48.339Z,5.93
2023-01-02T06:51:17.947Z,4.78
2023-01-02T06:53:44.642Z,4.60
2023-01-02T06:56:12.516Z,4.53
2023-01-02T06:58:39.315Z,6.03
2023-01-02T07:01:24.843Z,7.05
2023-01-02T07:03:51.405Z,7.75
2023-01-02T07:06:20.334Z,5.70
2023-01-02T07:08:47.297Z,6.53
2023-01-02T07:11:16.469Z,7.07
2023-01-02T07:13:44.169Z,3.80
2023-01-02T07:16:13.659Z,2.53
2023-01-02T07:18:40.201Z,2.25
2023-01-02T07:21:08.262Z,0.95
2023-01-02T07:23:35.048Z,0.30
2023-01-02T07:26:03.806Z,0.55
2023-01-02T07:28:30.994Z,0.38
2023-01-02T07:31:03.239Z,0.17
2023-01-02T07:33:30.392Z,0.15
2023-01-02T07:36:01.236Z,0.40
2023-01-02T07:38:27.918Z,0.52
2023-01-02T07:40:54.447Z,0.50
2023-01-02T07:43:21.441Z,0.10
2023-01-02T07:45:50.424Z,1.17
2023-01-02T07:48:17.680Z,0.63
2023-01-02T07:50:44.018Z,0.10
2023-01-02T07:53:10.402Z,1.50
2023-01-02T07:55:36.788Z,0.63
2023-01-02T07:58:03.138Z,1.10
2023-01-02T08:00:29.482Z,2.63
2023-01-02T08:02:55.976Z,2.33
2023-01-02T08:05:22.355Z,2.42
2023-01-02T08:07:48.907Z,1.90
2023-01-02T08:10:15.296Z,2.28
2023-01-02T08:12:41.631Z,2.28
2023-01-02T08:15:08.348Z,4.15
2023-01-02T08:17:34.790Z,3.25
2023-01-02T08:20:07.081Z,4.50
2023-01-02T08:22:34.253Z,5.38
2023-01-02T08:25:00.594Z,5.13
2023-01-02T08:27:26.959Z,4.05
2023-01-02T08:29:53.250Z,5.75
2023-01-02T08:32:19.570Z,5.22
2023-01-02T08:34:45.860Z,4.93
2023-01-02T08:37:12.162Z,6.15
2023-01-02T08:39:38.473Z,5.53
2023-01-02T08:42:05.169Z,5.85
2023-01-02T08:44:31.521Z,5.05
2023-01-02T08:46:57.821Z,5.50
2023-01-02T08:49:24.155Z,4.78
2023-01-02T08:51:50.552Z,2.85
2023-01-02T08:54:16.971Z,4.32
2023-01-02T08:56:43.355Z,5.63
2023-01-02T08:59:12.012Z,5.93
2023-01-02T09:01:39.124Z,5.07
2023-01-02T09:04:11.901Z,4.20
2023-01-02T09:06:39.238Z,5.45
2023-01-02T09:09:11.588Z,6.25
2023-01-02T09:11:49.922Z,1.67
2023-01-02T09:14:18.289Z,3.40
2023-01-02T09:16:44.756Z,2.67
2023-01-02T09:19:11.149Z,1.83
2023-01-02T09:21:37.507Z,1.92
2023-01-02T09:24:04.128Z,2.00
2023-01-02T09:26:30.685Z,2.05
2023-01-02T09:28:57.071Z,2.15
2023-01-02T09:31:24.024Z,1.63
2023-01-02T09:33:53.773Z,3.35
2023-01-02T09:36:21.013Z,2.50
2023-01-02T09:38:52.557Z,2.33
2023-01-02T09:41:21.632Z,1.95
2023-01-02T09:44:02.270Z,3.53
2023-01-02T09:46:41.871Z,3.70
2023-01-02T09:49:15.096Z,3.17
2023-01-02T09:51:43.843Z,2.08
2023-01-02T09:54:31.393Z,3.08
2023-01-02T09:57:28.881Z,2.83
2023-01-02T10:00:04.259Z,3.88
2023-01-02T10:02:48.737Z,3.13
2023-01-02T10:05:52.017Z,1.80
2023-01-02T10:08:32.783Z,1.13
2023-01-02T10:11:51.765Z,3.97
2023-01-02T10:14:36.075Z,0.90
2023-01-02T10:17:08.173Z,4.50
2023-01-02T10:19:48.408Z,2.90
2023-01-02T10:22:22.846Z,4.97
2023-01-02T10:25:03.220Z,2.15
2023-01-02T10:27:46.717Z,2.00
2023-01-02T10:30:21.757Z,3.53
2023-01-02T10:32:57.141Z,3.22
2023-01-02T10:35:34.262Z,2.55
2023-01-02T10:38:01.682Z,4.13
2023-01-02T10:40:30.143Z,1.98
2023-01-02T10:43:00.135Z,2.45
2023-01-02T10:45:27.078Z,5.10
2023-01-02T10:47:53.414Z,2.95
2023-01-02T10:50:27.130Z,3.83
2023-01-02T10:53:06.557Z,4.30
2023-01-02T10:55:38.159Z,1.98
2023-01-02T10:58:20.281Z,4.00
2023-01-02T11:00:48.330Z,3.47
2023-01-02T11:03:17.685Z,5.30
2023-01-02T11:05:59.201Z,3.85
2023-01-02T11:08:38.294Z,4.57
2023-01-02T11:11:15.694Z,3.28
2023-01-02T11:13:50.354Z,3.75
2023-01-02T11:16:20.855Z,4.63
2023-01-02T11:18:58.827Z,4.13
2023-01-02T11:21:30.311Z,3.67
2023-01-02T11:24:20.043Z,1.50
2023-01-02T11:26:49.474Z,2.40
2023-01-02T11:29:23.537Z,1.15
2023-01-02T11:31:58.444Z,2.60
2023-01-02T11:34:40.462Z,3.00
2023-01-02T11:37:16.913Z,3.35
2023-01-02T11:39:57.893Z,2.05
2023-01-02T11:42:48.025Z,3.63
2023-01-02T11:45:19.671Z,5.47
2023-01-02T11:47:51.004Z,3.42
2023-01-02T11:50:26.591Z,2.83
2023-01-02T11:53:01.168Z,5.15
2023-01-02T11:55:37.488Z,2.22
2023-01-02T11:58:17.342Z,4.20
2023-01-02T12:00:47.719Z,2.83
2023-01-02T12:03:22.109Z,3.78
2023-01-02T12:06:11.888Z,2.22
2023-01-02T12:08:51.313Z,4.43
2023-01-02T12:12:03.575Z,3.13
2023-01-02T12:14:55.061Z,3.80
2023-01-02T12:17:29.156Z,1.67
2023-01-02T12:20:07.441Z,6.20
2023-01-02T12:22:49.004Z,4.57
2023-01-02T12:25:26.685Z,3.47
2023-01-02T12:28:19.161Z,2.47
2023-01-02T12:30:54.239Z,2.30
2023-01-02T12:34:04.372Z,5.72
2023-01-02T12:37:01.866Z,4.38
2023-01-02T12:39:41.433Z,3.60
2023-01-02T12:42:20.353Z,4.63
2023-01-02T12:44:57.505Z,3.35
2023-01-02T12:47:32.715Z,7.25
2023-01-02T12:50:38.450Z,5.20
2023-01-02T12:53:23.629Z,4.20
2023-01-02T12:56:28.311Z,4.45
2023-01-02T12:59:27.903Z,2.80
2023-01-02T13:02:42.344Z,4.90
2023-01-02T13:05:14.104Z,3.67
2023-01-02T13:07:47.613Z,6.13
2023-01-02T13:10:18.676Z,3.42
2023-01-02T13:15:26.016Z,5.60
2023-01-02T13:18:36.222Z,4.78
2023-01-02T13:21:14.751Z,4.53
2023-01-02T13:23:51.693Z,4.10
2023-01-02T13:26:23.652Z,3.97
2023-01-02T13:29:09.643Z,6.40
2023-01-02T13:31:49.259Z,6.07
2023-01-02T13:34:23.040Z,5.07
2023-01-02T13:36:51.365Z,4.65
2023-01-02T13:39:25.612Z,7.28
2023-01-02T13:42:14.046Z,7.05
2023-01-02T13:44:43.659Z,7.53
2023-01-02T13:47:25.803Z,10.20
2023-01-02T13:50:12.900Z,9.55
2023-01-02T13:52:40.232Z,8.35
2023-01-02T13:55:28.530Z,8.40
2023-01-02T13:58:13.257Z,8.45
2023-01-02T14:00:42.332Z,9.18
2023-01-02T14:03:24.278Z,8.45
2023-01-02T14:05:56.921Z,8.48
2023-01-02T14:08:38.376Z,7.47
2023-01-02T14:11:13.391Z,8.27
2023-01-02T14:13:54.485Z,8.38
2023-01-02T14:16:42.771Z,8.48
2023-01-02T14:19:12.013Z,10.00
2023-01-02T14:21:50.483Z,10.32
2023-01-02T14:24:31.103Z,11.65
2023-01-02T14:27:03.923Z,9.45
2023-01-02T14:29:32.547Z,8.57
2023-01-02T14:32:17.677Z,13.45
2023-01-02T14:34:50.185Z,11.70
2023-01-02T14:37:30.994Z,11.40
2023-01-02T14:40:17.216Z,11.55
2023-01-02T14:43:04.665Z,14.07
2023-01-02T14:45:31.406Z,15.95
2023-01-02T14:48:08.444Z,12.27
2023-01-02T14:50:36.997Z,12.13
2023-01-02T14:53:18.444Z,14.32
2023-01-02T14:55:46.129Z,12.43
2023-01-02T14:58:20.030Z,13.07
2023-01-02T15:00:48.925Z,15.65
2023-01-02T15:03:31.563Z,14.55
2023-01-02T15:06:15.485Z,15.52
2023-01-02T15:08:49.040Z,13.85
2023-01-02T15:11:43.439Z,12.13
2023-01-02T15:14:20.411Z,13.93
2023-01-02T15:16:55.784Z,16.80
2023-01-02T15:19:26.270Z,13.50
2023-01-02T15:21:54.252Z,13.85
2023-01-02T15:24:27.089Z,13.35
2023-01-02T15:26:53.521Z,16.52
2023-01-02T15:29:24.148Z,15.43
2023-01-02T15:31:55.794Z,14.20
2023-01-02T15:34:30.914Z,14.75
2023-01-02T15:37:01.965Z,14.32
2023-01-02T15:42:26.098Z,15.07
2023-01-02T15:45:11.314Z,15.20
2023-01-02T15:47:47.687Z,15.43
2023-01-02T15:50:26.042Z,13.25
2023-01-02T15:53:02.975Z,12.55
2023-01-02T15:55:38.999Z,11.88
2023-01-02T15:58:14.416Z,15.23
2023-01-02T16:00:41.430Z,12.38
2023-01-02T16:03:10.245Z,14.57
2023-01-02T16:05:51.011Z,10.20
2023-01-02T16:08:23.815Z,12.70
2023-01-02T16:11:00.898Z,9.65
2023-01-02T16:13:52.921Z,9.82
2023-01-02T16:16:21.425Z,7.45
2023-01-02T16:18:58.652Z,8.77
2023-01-02T16:21:30.679Z,10.30
2023-01-02T16:23:58.221Z,11.38
2023-01-02T16:26:31.565Z,9.82
2023-01-02T16:28:58.207Z,12.90
2023-01-02T16:31:24.948Z,10.13
2023-01-02T16:33:51.620Z,7.72
2023-01-02T16:36:24.595Z,8.85
2023-01-02T16:38:59.840Z,9.57
2023-01-02T16:41:33.672Z,9.15
2023-01-02T16:44:04.212Z,13.40
2023-01-02T16:46:31.025Z,9.65
2023-01-02T16:49:03.119Z,10.13
2023-01-02T16:51:31.897Z,12.10
2023-01-02T16:53:58.266Z,9.30
2023-01-02T16:56:24.801Z,10.48
2023-01-02T16:58:51.127Z,11.98
2023-01-02T17:01:24.813Z,11.40
2023-01-02T17:03:51.180Z,9.88
2023-01-02T17:06:18.919Z,11.52
2023-01-02T17:08:45.370Z,14.20
2023-01-02T17:11:17.410Z,15.75
2023-01-02T17:13:44.299Z,13.77
2023-01-02T17:16:11.025Z,12.98
2023-01-02T17:18:37.435Z,14.07
2023-01-02T17:21:04.117Z,14.65
2023-01-02T17:23:30.840Z,14.27
2023-01-02T17:25:57.153Z,15.05
2023-01-02T17:28:23.719Z,13.73
2023-01-02T17:30:50.198Z,14.90
2023-01-02T17:33:17.323Z,12.38
2023-01-02T17:35:48.381Z,10.38
2023-01-02T17:40:41.731Z,7.15
2023-01-02T17:43:08.107Z,7.05
2023-01-02T17:45:34.667Z,6.00
2023-01-02T17:48:10.129Z,5.88
2023-01-02T17:50:37.903Z,8.00
2023-01-02T17:53:04.218Z,4.82
2023-01-02T17:55:30.539Z,6.03
2023-01-02T17:57:56.870Z,6.93
2023-01-02T18:00:23.353Z,7.40
2023-01-02T18:02:51.387Z,9.68
2023-01-02T18:05:17.867Z,2.75
2023-01-02T18:07:44.190Z,7.03
2023-01-02T18:10:13.581Z,5.45
2023-01-02T18:12:43.995Z,4.15
2023-01-02T18:15:13.564Z,4.65
2023-01-02T18:17:39.930Z,6.07
2023-01-02T18:20:11.743Z,3.17
2023-01-02T18:22:42.431Z,4.38
2023-01-02T18:25:21.640Z,4.22
2023-01-02T18:27:48.698Z,3.40
2023-01-02T18:30:19.662Z,5.95
2023-01-02T18:32:46.672Z,5.80
2023-01-02T18:38:35.856Z,8.07
2023-01-02T18:41:17.764Z,7.13
2023-01-02T18:43:45.317Z,6.32
2023-01-02T18:46:18.078Z,7.57
2023-01-02T18:48:44.929Z,6.53
2023-01-02T18:51:18.282Z,5.78
2023-01-02T18:53:50.368Z,8.68
2023-01-02T18:56:18.635Z,12.82
2023-01-02T18:58:57.581Z,9.63
2023-01-02T19:01:34.702Z,10.30
2023-01-02T19:04:27.714Z,10.27
2023-01-02T19:06:59.509Z,8.18
2023-01-02T19:12:18.641Z,10.02
2023-01-02T19:14:45.073Z,6.40
2023-01-02T19:17:26.670Z,6.82
2023-01-02T19:19:55.172Z,7.55
2023-01-02T19:22:24.629Z,7.20
2023-01-02T19:24:51.393Z,8.13
2023-01-02T19:27:37.052Z,6.97
2023-01-02T19:30:23.016Z,5.05
2023-01-02T19:32:49.329Z,7.90
2023-01-02T19:35:24.738Z,7.45
2023-01-02T19:37:51.814Z,10.15
2023-01-02T19:40:20.968Z,9.63
2023-01-02T19:42:48.933Z,7.55
2023-01-02T19:45:24.066Z,7.25
2023-01-02T19:47:51.241Z,6.57
2023-01-02T19:50:20.896Z,7.05
2023-01-02T19:52:47.291Z,8.43
2023-01-02T19:55:14.390Z,5.53
2023-01-02T19:57:40.828Z,7.05
2023-01-02T20:00:12.230Z,5.60
2023-01-02T20:02:40.411Z,7.90
2023-01-02T20:05:07.531Z,10.05
2023-01-02T20:07:33.902Z,10.00
2023-01-02T20:10:00.205Z,12.00
2023-01-02T20:12:40.081Z,7.75
2023-01-02T20:15:34.481Z,15.25
2023-01-02T20:18:08.321Z,6.03
2023-01-02T20:20:35.331Z,11.52
2023-01-02T20:23:01.649Z,9.40
2023-01-02T20:25:28.765Z,18.95
2023-01-02T20:27:56.286Z,12.90
2023-01-02T20:30:24.946Z,14.40
2023-01-02T20:32:54.484Z,10.40
2023-01-02T20:35:21.302Z,19.08
2023-01-02T20:37:49.890Z,17.67
2023-01-02T20:40:16.812Z,8.63
2023-01-02T20:42:43.230Z,11.02
2023-01-02T20:45:10.064Z,12.55
2023-01-02T20:47:37.053Z,16.65
2023-01-02T20:50:04.572Z,12.35
2023-01-02T20:52:30.892Z,12.90
2023-01-02T20:54:58.527Z,11.90
2023-01-02T20:57:24.858Z,13.85
2023-01-02T20:59:51.273Z,13.88
2023-01-02T21:02:17.845Z,14.38
2023-01-02T21:04:44.272Z,17.05
2023-01-02T21:07:10.679Z,13.75
2023-01-02T21:09:37.023Z,12.77
2023-01-02T21:12:03.450Z,12.25
2023-01-02T21:14:35.377Z,12.88
2023-01-02T21:17:03.680Z,13.63
2023-01-02T21:19:30.052Z,14.40
2023-01-02T21:21:56.497Z,11.80
2023-01-02T21:24:22.976Z,10.32
2023-01-02T21:26:49.367Z,11.77
2023-01-02T21:29:15.686Z,18.50
2023-01-02T21:31:41.979Z,16.20
2023-01-02T21:34:08.425Z,14.18
2023-01-02T21:36:36.183Z,14.70
2023-01-02T21:39:02.619Z,14.63
2023-01-02T21:41:47.357Z,16.48
2023-01-02T21:44:13.715Z,17.05
2023-01-02T21:46:40.105Z,15.02
2023-01-02T21:49:06.528Z,12.75
2023-01-02T21:51:33.300Z,14.23
2023-01-02T21:53:59.825Z,11.10
2023-01-02T21:56:26.232Z,21.88
2023-01-02T21:58:52.638Z,21.25
2023-01-02T22:01:19.097Z,12.52
2023-01-02T22:03:45.689Z,11.85
2023-01-02T22:06:12.070Z,12.15
2023-01-02T22:08:38.391Z,12.75
2023-01-02T22:11:23.461Z,10.63
2023-01-02T22:13:49.787Z,12.63
2023-01-02T22:16:16.180Z,15.75
2023-01-02T22:18:42.494Z,17.00
2023-01-02T22:21:08.818Z,16.73
2023-01-02T22:23:35.138Z,15.43
2023-01-02T22:26:01.448Z,17.35
2023-01-02T22:28:27.777Z,17.10
2023-01-02T22:30:54.147Z,16.90
2023-01-02T22:33:20.558Z,20.77
2023-01-02T22:35:46.956Z,18.13
2023-01-02T22:38:13.263Z,21.73
2023-01-02T22:40:39.691Z,20.27
2023-01-02T22:43:06.675Z,19.65
2023-01-02T22:45:48.716Z,19.60
2023-01-02T22:48:30.837Z,18.30
2023-01-02T22:51:00.266Z,22.60
2023-01-02T22:53:29.768Z,22.33
2023-01-02T22:55:56.743Z,19.45
2023-01-02T22:58:24.179Z,21.05
2023-01-02T23:00:59.181Z,19.50
2023-01-02T23:03:28.025Z,19.65
2023-01-02T23:05:54.324Z,20.45
2023-01-02T23:08:20.855Z,17.33
2023-01-02T23:10:47.202Z,18.13
2023-01-02T23:13:13.523Z,19.63
2023-01-02T23:15:59.933Z,19.88
2023-01-02T23:18:44.906Z,24.17
2023-01-02T23:21:12.385Z,20.00
2023-01-02T23:23:38.792Z,19.38
2023-01-02T23:26:06.252Z,21.35
2023-01-02T23:29:05.320Z,20.50
2023-01-02T23:31:19.000Z,23.40
2023-01-02T23:33:45.329Z,22.40
2023-01-02T23:36:11.783Z,22.73
2023-01-02T23:38:38.074Z,23.77
2023-01-02T23:41:04.493Z,22.25
2023-01-02T23:43:30.821Z,23.45
2023-01-02T23:45:57.175Z,21.17
2023-01-02T23:48:23.559Z,22.55
2023-01-02T23:50:57.826Z,17.17
2023-01-02T23:53:24.884Z,20.40
2023-01-02T23:55:51.212Z,19.98
2023-01-02T23:58:17.631Z,15.18
